createdAt,value
2023-05-16T00:01:35.581Z,2.22
2023-05-16T00:04:04.680Z,2.75
2023-05-16T00:06:33.295Z,3.30
2023-05-16T00:09:01.121Z,3.58
2023-05-16T00:11:29.191Z,3.33
2023-05-16T00:13:57.306Z,3.63
2023-05-16T00:16:29.357Z,4.15
2023-05-16T00:18:57.679Z,4.40
2023-05-16T00:21:26.075Z,3.92
2023-05-16T00:23:53.924Z,3.95
2023-05-16T00:26:21.770Z,3.92
2023-05-16T00:28:49.897Z,3.80
2023-05-16T00:31:17.726Z,3.30
2023-05-16T00:33:47.075Z,3.45
2023-05-16T00:36:14.911Z,2.97
2023-05-16T00:38:42.695Z,2.88
2023-05-16T00:41:10.444Z,3.00
2023-05-16T00:43:39.585Z,3.10
2023-05-16T00:46:07.459Z,3.03
2023-05-16T00:48:36.692Z,3.10
2023-05-16T00:51:09.264Z,3.25
2023-05-16T00:53:37.700Z,3.08
2023-05-16T00:56:07.228Z,2.80
2023-05-16T00:58:35.370Z,2.67
2023-05-16T01:01:03.995Z,2.20
2023-05-16T01:03:32.531Z,2.05
2023-05-16T01:06:01.072Z,2.03
2023-05-16T01:08:30.394Z,1.80
2023-05-16T01:11:03.808Z,2.10
2023-05-16T01:13:38.193Z,2.10
2023-05-16T01:16:11.717Z,2.60
2023-05-16T01:18:44.344Z,2.33
2023-05-16T01:21:19.922Z,2.15
2023-05-16T01:24:01.746Z,2.40
2023-05-16T01:26:32.364Z,2.60
2023-05-16T01:29:03.864Z,2.25
2023-05-16T01:31:31.987Z,2.70
2023-05-16T01:33:59.866Z,2.35
2023-05-16T01:36:34.236Z,2.65
2023-05-16T01:39:15.255Z,2.70
2023-05-16T01:41:54.903Z,3.03
2023-05-16T01:44:28.010Z,2.92
2023-05-16T01:46:59.039Z,2.95
2023-05-16T01:49:34.629Z,3.30
2023-05-16T01:52:08.967Z,2.95
2023-05-16T01:54:39.498Z,2.85
2023-05-16T01:57:10.541Z,3.00
2023-05-16T01:59:40.161Z,3.00
2023-05-16T02:02:07.928Z,3.03
2023-05-16T02:04:35.773Z,2.72
2023-05-16T02:07:03.596Z,2.25
2023-05-16T02:09:31.427Z,2.20
2023-05-16T02:12:00.766Z,2.40
2023-05-16T02:14:29.900Z,2.20
2023-05-16T02:16:58.842Z,2.13
2023-05-16T02:19:26.659Z,2.00
2023-05-16T02:21:54.440Z,1.88
2023-05-16T02:24:22.638Z,2.25
2023-05-16T02:26:50.423Z,2.08
2023-05-16T02:29:18.462Z,2.60
2023-05-16T02:31:47.698Z,2.53
2023-05-16T02:34:15.927Z,2.40
2023-05-16T02:36:43.809Z,2.63
2023-05-16T02:39:11.704Z,2.38
2023-05-16T02:41:40.284Z,2.40
2023-05-16T02:44:09.691Z,2.17
2023-05-16T02:46:37.601Z,2.13
2023-05-16T02:49:06.894Z,2.00
2023-05-16T02:51:34.682Z,2.28
2023-05-16T02:54:02.699Z,2.47
2023-05-16T02:56:30.612Z,2.28
2023-05-16T02:58:58.368Z,2.45
2023-05-16T03:01:26.332Z,2.45
2023-05-16T03:03:54.196Z,2.25
2023-05-16T03:06:23.777Z,2.13
2023-05-16T03:08:51.546Z,2.25
2023-05-16T03:11:22.312Z,2.05
2023-05-16T03:13:50.417Z,2.42
2023-05-16T03:16:18.338Z,1.98
2023-05-16T03:18:46.216Z,2.33
2023-05-16T03:21:14.097Z,2.03
2023-05-16T03:23:43.377Z,2.80
2023-05-16T03:26:11.491Z,2.17
2023-05-16T03:28:39.400Z,2.10
2023-05-16T03:31:07.433Z,2.05
2023-05-16T03:33:35.430Z,1.85
2023-05-16T03:36:03.585Z,2.30
2023-05-16T03:38:32.487Z,2.03
2023-05-16T03:41:01.878Z,1.70
2023-05-16T03:43:30.052Z,2.17
2023-05-16T03:45:57.857Z,2.13
2023-05-16T03:48:25.736Z,2.20
2023-05-16T03:50:53.547Z,2.22
2023-05-16T03:53:21.485Z,1.95
2023-05-16T03:55:49.295Z,1.90
2023-05-16T03:58:18.528Z,1.98
2023-05-16T04:00:46.835Z,2.00
2023-05-16T04:03:14.867Z,2.20
2023-05-16T04:05:43.247Z,1.80
2023-05-16T04:08:11.235Z,1.67
2023-05-16T04:10:39.263Z,1.60
2023-05-16T04:13:07.168Z,1.80
2023-05-16T04:15:36.345Z,2.08
2023-05-16T04:18:09.060Z,2.20
2023-05-16T04:23:04.856Z,1.88
2023-05-16T04:25:32.782Z,1.67
2023-05-16T04:28:00.765Z,2.33
2023-05-16T04:30:28.518Z,2.10
2023-05-16T04:32:59.413Z,2.28
2023-05-16T04:35:28.411Z,2.05
2023-05-16T04:37:56.913Z,2.50
2023-05-16T04:40:25.398Z,2.30
2023-05-16T04:42:54.517Z,2.47
2023-05-16T04:45:22.492Z,2.22
2023-05-16T04:47:51.481Z,2.22
2023-05-16T04:50:20.787Z,2.50
2023-05-16T04:52:48.542Z,2.30
2023-05-16T04:55:16.593Z,2.60
2023-05-16T04:57:44.487Z,2.25
2023-05-16T05:00:13.712Z,2.55
2023-05-16T05:02:41.483Z,2.28
2023-05-16T05:05:10.431Z,2.22
2023-05-16T05:07:40.862Z,2.30
2023-05-16T05:10:09.577Z,1.98
2023-05-16T05:12:38.131Z,1.90
2023-05-16T05:15:07.250Z,1.60
2023-05-16T05:17:35.131Z,2.67
2023-05-16T05:20:06.844Z,2.00
2023-05-16T05:22:34.732Z,2.00
2023-05-16T05:25:03.989Z,2.50
2023-05-16T05:27:31.907Z,2.10
2023-05-16T05:29:59.640Z,2.00
2023-05-16T05:32:27.661Z,1.73
2023-05-16T05:34:55.709Z,2.15
2023-05-16T05:37:23.531Z,1.75
2023-05-16T05:39:51.364Z,2.10
2023-05-16T05:42:20.650Z,2.22
2023-05-16T05:44:48.640Z,1.90
2023-05-16T05:47:16.788Z,2.17
2023-05-16T05:49:44.974Z,1.77
2023-05-16T05:52:12.925Z,1.60
2023-05-16T05:54:40.783Z,2.10
2023-05-16T05:57:09.887Z,1.45
2023-05-16T05:59:39.083Z,1.70
2023-05-16T06:02:07.541Z,1.60
2023-05-16T06:04:35.411Z,2.10
2023-05-16T06:07:03.716Z,1.48
2023-05-16T06:09:31.479Z,1.50
2023-05-16T06:12:00.109Z,1.17
2023-05-16T06:14:28.023Z,1.65
2023-05-16T06:16:57.321Z,1.42
2023-05-16T06:19:25.296Z,1.40
2023-05-16T06:21:53.242Z,1.30
2023-05-16T06:24:21.855Z,1.23
2023-05-16T06:26:50.782Z,1.30
2023-05-16T06:29:18.625Z,1.38
2023-05-16T06:31:47.487Z,1.35
2023-05-16T06:34:16.749Z,1.48
2023-05-16T06:36:44.772Z,1.83
2023-05-16T06:39:12.516Z,1.60
2023-05-16T06:41:40.449Z,2.13
2023-05-16T06:44:12.504Z,1.92
2023-05-16T06:46:40.465Z,2.05
2023-05-16T06:49:08.338Z,2.72
2023-05-16T06:51:37.673Z,1.98
2023-05-16T06:54:05.731Z,2.10
2023-05-16T06:56:33.890Z,1.88
2023-05-16T06:59:02.539Z,1.92
2023-05-16T07:01:30.560Z,2.10
2023-05-16T07:03:58.604Z,2.13
2023-05-16T07:06:26.731Z,2.15
2023-05-16T07:08:55.934Z,2.15
2023-05-16T07:11:23.935Z,2.17
2023-05-16T07:13:52.017Z,2.00
2023-05-16T07:16:19.926Z,2.05
2023-05-16T07:18:47.883Z,2.08
2023-05-16T07:21:15.936Z,2.03
2023-05-16T07:23:43.964Z,1.98
2023-05-16T07:26:15.221Z,1.90
2023-05-16T07:28:45.241Z,1.60
2023-05-16T07:31:19.888Z,1.60
2023-05-16T07:34:41.911Z,1.95
2023-05-16T07:37:13.040Z,1.67
2023-05-16T07:39:41.139Z,1.85
2023-05-16T07:42:10.937Z,1.50
2023-05-16T07:44:39.142Z,1.73
2023-05-16T07:47:07.804Z,1.90
2023-05-16T07:49:35.864Z,1.50
2023-05-16T07:52:03.744Z,1.58
2023-05-16T07:54:32.329Z,1.50
2023-05-16T07:57:00.375Z,1.52
2023-05-16T07:59:29.704Z,1.50
2023-05-16T08:01:57.733Z,1.60
2023-05-16T08:04:25.966Z,1.42
2023-05-16T08:06:54.004Z,1.40
2023-05-16T08:09:21.951Z,1.20
2023-05-16T08:11:49.920Z,1.42
2023-05-16T08:14:18.769Z,1.30
2023-05-16T08:16:48.022Z,1.40
2023-05-16T08:19:16.006Z,1.25
2023-05-16T08:21:44.043Z,1.35
2023-05-16T08:24:12.248Z,1.25
2023-05-16T08:26:40.189Z,1.20
2023-05-16T08:29:08.247Z,1.00
2023-05-16T08:31:39.983Z,1.00
2023-05-16T08:34:10.485Z,1.10
2023-05-16T08:36:39.014Z,1.02
2023-05-16T08:39:08.939Z,1.10
2023-05-16T08:41:38.251Z,1.00
2023-05-16T08:44:06.855Z,1.20
2023-05-16T08:46:36.863Z,1.30
2023-05-16T08:49:08.049Z,1.27
2023-05-16T08:51:39.563Z,1.13
2023-05-16T08:54:13.783Z,1.30
2023-05-16T08:56:42.614Z,1.20
2023-05-16T08:59:11.550Z,1.40
2023-05-16T09:01:39.713Z,1.48
2023-05-16T09:04:09.249Z,1.27
2023-05-16T09:06:38.934Z,1.05
2023-05-16T09:09:08.220Z,1.00
2023-05-16T09:11:37.081Z,1.23
2023-05-16T09:14:05.676Z,1.15
2023-05-16T09:16:33.582Z,0.88
2023-05-16T09:19:02.858Z,1.10
2023-05-16T09:21:33.658Z,1.10
2023-05-16T09:24:06.174Z,1.00
2023-05-16T09:26:34.386Z,0.90
2023-05-16T09:29:02.724Z,1.38
2023-05-16T09:31:36.901Z,1.30
2023-05-16T09:34:16.015Z,0.90
2023-05-16T09:50:21.355Z,1.30
2023-05-16T09:53:11.537Z,1.02
2023-05-16T09:55:39.389Z,1.15
2023-05-16T09:58:07.422Z,1.10
2023-05-16T10:00:35.721Z,1.25
2023-05-16T10:03:05.732Z,1.00
2023-05-16T10:05:35.613Z,1.00
2023-05-16T10:08:04.745Z,1.23
2023-05-16T10:10:37.492Z,1.15
2023-05-16T10:13:08.286Z,1.00
2023-05-16T10:15:38.356Z,1.10
2023-05-16T10:18:12.107Z,0.93
2023-05-16T10:20:42.784Z,1.08
2023-05-16T10:23:16.598Z,1.27
2023-05-16T10:25:46.843Z,1.30
2023-05-16T10:28:16.279Z,1.02
2023-05-16T10:30:45.847Z,1.55
2023-05-16T10:33:15.051Z,0.90
2023-05-16T10:35:43.358Z,1.95
2023-05-16T10:38:12.535Z,1.00
2023-05-16T10:40:43.771Z,0.82
2023-05-16T10:43:24.713Z,1.10
2023-05-16T10:45:56.510Z,1.10
2023-05-16T10:48:30.558Z,1.00
2023-05-16T10:50:58.681Z,1.00
2023-05-16T10:53:31.930Z,0.98
2023-05-16T10:56:11.400Z,1.20
2023-05-16T10:58:45.412Z,1.45
2023-05-16T11:01:22.121Z,2.13
2023-05-16T11:04:11.274Z,3.08
2023-05-16T11:06:47.782Z,2.90
2023-05-16T11:09:28.058Z,3.15
2023-05-16T11:12:06.459Z,2.85
2023-05-16T11:14:42.296Z,3.15
2023-05-16T11:17:12.204Z,2.22
2023-05-16T11:19:45.155Z,2.70
2023-05-16T11:22:31.154Z,1.50
2023-05-16T11:25:01.761Z,1.30
2023-05-16T11:27:31.689Z,1.27
2023-05-16T11:30:15.513Z,1.00
2023-05-16T11:32:44.961Z,1.00
2023-05-16T11:35:14.937Z,1.05
2023-05-16T11:37:44.212Z,1.05
2023-05-16T11:40:14.052Z,0.80
2023-05-16T11:42:44.065Z,0.88
2023-05-16T11:45:16.540Z,0.60
2023-05-16T11:47:48.119Z,0.80
2023-05-16T11:50:18.028Z,0.90
2023-05-16T11:52:48.643Z,0.80
2023-05-16T11:55:28.214Z,0.80
2023-05-16T11:58:06.809Z,0.70
2023-05-16T12:00:36.330Z,1.00
2023-05-16T12:03:06.377Z,1.00
2023-05-16T12:05:35.784Z,1.00
2023-05-16T12:08:05.787Z,0.70
2023-05-16T12:10:35.266Z,0.80
2023-05-16T12:14:02.107Z,0.60
2023-05-16T12:16:44.592Z,0.70
2023-05-16T12:19:15.476Z,0.87
2023-05-16T12:21:51.351Z,0.90
2023-05-16T12:24:47.816Z,0.80
2023-05-16T12:28:31.733Z,0.70
2023-05-16T12:31:05.746Z,0.75
2023-05-16T12:33:38.629Z,0.90
2023-05-16T12:36:14.469Z,0.75
2023-05-16T12:38:43.300Z,0.70
2023-05-16T12:41:11.310Z,0.60
2023-05-16T12:43:39.397Z,0.68
2023-05-16T12:46:12.534Z,1.00
2023-05-16T12:48:44.129Z,0.95
2023-05-16T12:51:14.151Z,1.10
2023-05-16T12:53:57.524Z,0.80
2023-05-16T12:56:29.824Z,0.80
2023-05-16T12:58:57.817Z,0.70
2023-05-16T13:01:25.949Z,0.80
2023-05-16T13:03:55.521Z,0.65
2023-05-16T13:06:23.795Z,0.70
2023-05-16T13:08:51.761Z,0.70
2023-05-16T13:11:19.986Z,0.80
2023-05-16T13:13:47.981Z,0.80
2023-05-16T13:16:25.560Z,0.80
2023-05-16T13:23:22.450Z,0.88
2023-05-16T13:25:50.695Z,0.63
2023-05-16T13:28:18.592Z,1.10
2023-05-16T13:30:46.809Z,0.90
2023-05-16T13:33:14.913Z,0.68
2023-05-16T13:35:43.196Z,0.95
2023-05-16T13:38:11.215Z,0.50
2023-05-16T13:40:42.905Z,0.88
2023-05-16T13:43:11.197Z,0.80
2023-05-16T13:45:39.139Z,0.57
2023-05-16T13:48:07.998Z,0.77
2023-05-16T13:50:36.275Z,0.68
2023-05-16T13:53:04.482Z,0.90
2023-05-16T13:55:32.420Z,0.70
2023-05-16T13:58:02.561Z,0.80
2023-05-16T14:00:43.447Z,1.10
2023-05-16T14:03:14.615Z,0.80
2023-05-16T14:05:42.927Z,0.77
2023-05-16T14:08:10.889Z,0.90
2023-05-16T14:10:38.793Z,1.20
2023-05-16T14:13:08.188Z,1.42
2023-05-16T14:15:36.088Z,1.00
2023-05-16T14:18:04.915Z,0.90
2023-05-16T14:20:40.042Z,0.80
2023-05-16T14:23:08.036Z,0.85
2023-05-16T14:25:36.225Z,0.98
2023-05-16T14:28:04.173Z,0.90
2023-05-16T14:30:33.405Z,0.93
2023-05-16T14:33:02.268Z,1.02
2023-05-16T14:35:31.270Z,1.00
2023-05-16T14:37:59.633Z,1.05
2023-05-16T14:40:27.935Z,1.02
2023-05-16T14:42:55.880Z,0.93
2023-05-16T14:45:23.752Z,1.05
2023-05-16T14:47:53.591Z,1.05
2023-05-16T14:50:21.691Z,1.00
2023-05-16T14:52:50.006Z,1.20
2023-05-16T14:55:18.155Z,1.20
2023-05-16T14:57:46.208Z,1.30
2023-05-16T15:00:25.046Z,1.10
2023-05-16T15:02:54.674Z,1.02
2023-05-16T15:05:25.852Z,1.20
2023-05-16T15:07:53.893Z,1.20
2023-05-16T15:10:21.768Z,1.33
2023-05-16T15:12:49.756Z,1.20
2023-05-16T15:15:17.832Z,1.17
2023-05-16T15:17:45.691Z,1.50
2023-05-16T15:20:15.721Z,1.70
2023-05-16T15:22:43.588Z,1.25
2023-05-16T15:25:12.178Z,1.30
2023-05-16T15:27:40.221Z,1.67
2023-05-16T15:30:09.765Z,1.55
2023-05-16T15:32:37.796Z,1.55
2023-05-16T15:35:06.721Z,1.50
2023-05-16T15:37:36.043Z,1.23
2023-05-16T15:40:05.824Z,1.30
2023-05-16T15:42:33.754Z,1.20
2023-05-16T15:45:01.623Z,1.10
2023-05-16T15:47:29.609Z,1.23
2023-05-16T15:49:57.594Z,1.20
2023-05-16T15:52:25.480Z,1.00
2023-05-16T15:54:54.862Z,1.40
2023-05-16T15:57:23.276Z,1.35
2023-05-16T15:59:51.212Z,1.10
2023-05-16T16:02:19.089Z,1.17
2023-05-16T16:04:49.146Z,1.20
2023-05-16T16:07:17.045Z,1.17
2023-05-16T16:09:45.457Z,1.20
2023-05-16T16:12:14.655Z,1.20
2023-05-16T16:14:42.599Z,1.25
2023-05-16T16:17:10.560Z,1.20
2023-05-16T16:19:38.425Z,1.13
2023-05-16T16:22:06.485Z,1.15
2023-05-16T16:25:00.856Z,0.98
2023-05-16T16:27:38.659Z,1.00
2023-05-16T16:30:07.815Z,1.20
2023-05-16T16:32:35.751Z,1.10
2023-05-16T16:35:05.354Z,1.30
2023-05-16T16:37:33.539Z,1.48
2023-05-16T16:40:01.732Z,1.30
2023-05-16T16:42:30.520Z,1.30
2023-05-16T16:45:00.049Z,1.10
2023-05-16T16:47:28.496Z,1.17
2023-05-16T16:49:56.476Z,1.20
2023-05-16T16:52:24.356Z,1.10
2023-05-16T16:54:52.301Z,1.38
2023-05-16T16:57:20.181Z,1.25
2023-05-16T16:59:49.021Z,1.45
2023-05-16T17:02:18.374Z,1.40
2023-05-16T17:04:46.881Z,1.60
2023-05-16T17:07:14.807Z,1.52
2023-05-16T17:09:43.031Z,1.35
2023-05-16T17:12:18.801Z,1.27
2023-05-16T17:14:47.661Z,1.35
2023-05-16T17:17:15.936Z,1.45
2023-05-16T17:19:48.105Z,1.52
2023-05-16T17:22:16.038Z,1.35
2023-05-16T17:24:43.948Z,1.58
2023-05-16T17:27:13.466Z,1.65
2023-05-16T17:29:41.395Z,1.85
2023-05-16T17:32:09.630Z,1.55
2023-05-16T17:34:37.612Z,1.58
2023-05-16T17:37:07.335Z,1.50
2023-05-16T17:39:35.507Z,1.58
2023-05-16T17:42:05.542Z,1.60
2023-05-16T17:44:33.469Z,1.40
2023-05-16T17:47:01.503Z,1.38
2023-05-16T17:49:29.435Z,1.40
2023-05-16T17:51:58.267Z,1.25
2023-05-16T17:54:32.062Z,1.13
2023-05-16T17:57:00.429Z,1.48
2023-05-16T17:59:28.484Z,1.70
2023-05-16T18:01:57.415Z,1.70
2023-05-16T18:04:25.617Z,1.30
2023-05-16T18:06:54.341Z,1.63
2023-05-16T18:09:22.511Z,1.70
2023-05-16T18:11:51.901Z,1.42
2023-05-16T18:14:21.049Z,1.30
2023-05-16T18:16:48.960Z,1.20
2023-05-16T18:19:17.169Z,1.50
2023-05-16T18:21:45.306Z,1.40
2023-05-16T18:24:13.545Z,1.40
2023-05-16T18:26:41.994Z,1.70
2023-05-16T18:29:11.829Z,1.40
2023-05-16T18:31:42.324Z,1.98
2023-05-16T18:34:11.402Z,1.30
2023-05-16T18:36:39.524Z,1.40
2023-05-16T18:39:07.563Z,1.20
2023-05-16T18:41:35.548Z,1.25
2023-05-16T18:44:03.510Z,1.40
2023-05-16T18:46:32.763Z,1.10
2023-05-16T18:49:00.997Z,1.40
2023-05-16T18:51:28.915Z,1.40
2023-05-16T18:53:56.829Z,1.30
2023-05-16T18:56:24.782Z,1.10
2023-05-16T18:58:52.932Z,1.30
2023-05-16T19:01:22.380Z,1.38
2023-05-16T19:03:54.827Z,1.40
2023-05-16T19:06:22.842Z,1.40
2023-05-16T19:08:50.824Z,1.50
2023-05-16T19:11:19.059Z,1.52
2023-05-16T19:13:47.285Z,1.40
2023-05-16T19:16:15.488Z,1.50
2023-05-16T19:18:43.506Z,1.38
2023-05-16T19:21:13.599Z,1.50
2023-05-16T19:23:41.957Z,1.20
2023-05-16T19:26:10.031Z,1.30
2023-05-16T19:28:40.630Z,1.10
2023-05-16T19:31:09.181Z,1.60
2023-05-16T19:33:38.111Z,1.30
2023-05-16T19:36:07.259Z,1.27
2023-05-16T19:38:36.844Z,1.27
2023-05-16T19:41:05.005Z,1.10
2023-05-16T19:43:36.952Z,1.20
2023-05-16T19:46:06.813Z,1.33
2023-05-16T19:48:35.399Z,1.17
2023-05-16T19:51:03.853Z,1.40
2023-05-16T19:53:32.081Z,1.30
2023-05-16T19:56:02.698Z,1.15
2023-05-16T19:58:31.491Z,1.25
2023-05-16T20:01:02.615Z,1.10
2023-05-16T20:03:31.122Z,1.02
2023-05-16T20:06:00.277Z,1.20
2023-05-16T20:08:29.381Z,1.17
2023-05-16T20:11:02.657Z,1.30
2023-05-16T20:13:33.050Z,1.10
2023-05-16T20:21:10.105Z,1.02
2023-05-16T20:23:39.469Z,1.10
2023-05-16T20:26:09.086Z,1.35
2023-05-16T20:28:37.267Z,1.30
2023-05-16T20:31:05.290Z,2.00
2023-05-16T20:33:33.858Z,1.80
2023-05-16T20:36:04.370Z,1.75
2023-05-16T20:38:32.749Z,1.80
2023-05-16T20:41:01.101Z,1.60
2023-05-16T20:43:30.778Z,1.67
2023-05-16T20:45:58.838Z,1.30
2023-05-16T20:48:27.098Z,1.42
2023-05-16T20:50:56.672Z,1.63
2023-05-16T20:53:24.792Z,1.38
2023-05-16T20:55:52.749Z,1.30
2023-05-16T20:58:20.762Z,1.30
2023-05-16T21:00:50.476Z,1.23
2023-05-16T21:03:18.723Z,1.23
2023-05-16T21:05:46.832Z,1.50
2023-05-16T21:08:14.957Z,1.55
2023-05-16T21:10:42.999Z,1.25
2023-05-16T21:13:13.164Z,1.40
2023-05-16T21:15:41.103Z,1.63
2023-05-16T21:18:10.492Z,1.52
2023-05-16T21:20:38.752Z,1.40
2023-05-16T21:23:06.768Z,1.45
2023-05-16T21:25:36.127Z,1.25
2023-05-16T21:28:04.277Z,1.30
2023-05-16T21:30:32.396Z,1.50
2023-05-16T21:33:00.747Z,1.60
2023-05-16T21:35:30.535Z,1.10
2023-05-16T21:37:58.831Z,1.08
2023-05-16T21:40:28.842Z,1.30
2023-05-16T21:42:59.031Z,1.20
2023-05-16T21:45:27.577Z,1.90
2023-05-16T21:47:55.960Z,1.40
2023-05-16T21:50:24.212Z,1.30
2023-05-16T21:52:53.842Z,1.23
2023-05-16T21:55:22.091Z,1.50
2023-05-16T21:57:50.496Z,1.73
2023-05-16T22:00:19.229Z,2.05
2023-05-16T22:02:48.582Z,1.98
2023-05-16T22:05:19.248Z,1.83
2023-05-16T22:07:47.449Z,2.30
2023-05-16T22:10:18.611Z,1.70
2023-05-16T22:12:46.987Z,1.70
2023-05-16T22:15:15.020Z,2.17
2023-05-16T22:17:43.165Z,1.58
2023-05-16T22:20:11.970Z,1.52
2023-05-16T22:22:40.093Z,1.60
2023-05-16T22:25:08.846Z,1.67
2023-05-16T22:27:38.401Z,1.85
2023-05-16T22:30:07.764Z,1.40
2023-05-16T22:32:35.995Z,1.75
2023-05-16T22:35:04.143Z,1.38
2023-05-16T22:37:32.277Z,1.50
2023-05-16T22:40:00.578Z,1.35
2023-05-16T22:42:28.549Z,1.27
2023-05-16T22:44:58.063Z,1.42
2023-05-16T22:47:26.081Z,1.70
2023-05-16T22:49:54.084Z,1.83
2023-05-16T22:52:22.632Z,1.98
2023-05-16T22:54:50.920Z,1.75
2023-05-16T22:57:19.025Z,1.48
2023-05-16T22:59:47.166Z,1.60
2023-05-16T23:02:16.565Z,1.40
2023-05-16T23:04:44.673Z,1.35
2023-05-16T23:07:12.962Z,1.58
2023-05-16T23:09:41.192Z,1.50
2023-05-16T23:12:09.901Z,1.20
2023-05-16T23:14:38.052Z,1.65
2023-05-16T23:17:06.527Z,2.30
2023-05-16T23:19:36.141Z,2.38
2023-05-16T23:22:06.157Z,2.10
2023-05-16T23:24:34.267Z,2.47
2023-05-16T23:27:02.365Z,2.22
2023-05-16T23:29:30.422Z,2.00
2023-05-16T23:31:58.577Z,1.90
2023-05-16T23:34:26.823Z,1.90
2023-05-16T23:36:56.242Z,1.83
2023-05-16T23:39:24.460Z,1.92
2023-05-16T23:41:52.518Z,1.40
2023-05-16T23:44:20.616Z,1.42
2023-05-16T23:46:48.663Z,1.42
2023-05-16T23:49:16.780Z,1.55
2023-05-16T23:51:56.715Z,1.63
2023-05-16T23:54:27.431Z,1.60
2023-05-16T23:56:55.461Z,1.92
2023-05-16T23:59:23.605Z,1.67
